sensor_id;sensor_type;location;lat;lon;timestamp;temperature;humidity
14529;DHT22;7351;51.194;4.098;2023-05-07T00:00:49;21.40;99.90
14529;DHT22;7351;51.194;4.098;2023-05-07T00:03:16;21.40;99.90
14529;DHT22;7351;51.194;4.098;2023-05-07T00:05:44;21.30;99.90
14529;DHT22;7351;51.194;4.098;2023-05-07T00:08:12;21.30;99.90
14529;DHT22;7351;51.194;4.098;2023-05-07T00:10:39;21.30;99.90
14529;DHT22;7351;51.194;4.098;2023-05-07T00:13:07;21.40;99.90
14529;DHT22;7351;51.194;4.098;2023-05-07T00:15:34;21.40;99.90
14529;DHT22;7351;51.194;4.098;2023-05-07T00:18:01;21.40;99.90
14529;DHT22;7351;51.194;4.098;2023-05-07T00:20:28;21.30;99.90
14529;DHT22;7351;51.194;4.098;2023-05-07T00:22:55;21.40;99.90
14529;DHT22;7351;51.194;4.098;2023-05-07T00:25:22;21.30;99.90
14529;DHT22;7351;51.194;4.098;2023-05-07T00:27:49;21.30;99.90
14529;DHT22;7351;51.194;4.098;2023-05-07T00:30:17;21.30;99.90
14529;DHT22;7351;51.194;4.098;2023-05-07T00:32:44;21.40;99.90
14529;DHT22;7351;51.194;4.098;2023-05-07T00:35:11;21.30;99.90
14529;DHT22;7351;51.194;4.098;2023-05-07T00:37:38;21.30;99.90
14529;DHT22;7351;51.194;4.098;2023-05-07T00:40:07;21.30;99.90
14529;DHT22;7351;51.194;4.098;2023-05-07T00:42:34;21.40;99.90
14529;DHT22;7351;51.194;4.098;2023-05-07T00:45:01;21.30;99.90
14529;DHT22;7351;51.194;4.098;2023-05-07T00:47:30;21.30;99.90
14529;DHT22;7351;51.194;4.098;2023-05-07T00:49:57;21.30;99.90
14529;DHT22;7351;51.194;4.098;2023-05-07T00:52:26;21.30;99.90
14529;DHT22;7351;51.194;4.098;2023-05-07T00:54:53;21.20;99.90
14529;DHT22;7351;51.194;4.098;2023-05-07T00:57:21;21.30;99.90
14529;DHT22;7351;51.194;4.098;2023-05-07T00:59:51;21.30;99.90
14529;DHT22;7351;51.194;4.098;2023-05-07T01:02:18;21.30;99.90
14529;DHT22;7351;51.194;4.098;2023-05-07T01:04:47;21.30;99.90
14529;DHT22;7351;51.194;4.098;2023-05-07T01:07:14;21.30;99.90
14529;DHT22;7351;51.194;4.098;2023-05-07T01:09:41;21.30;99.90
14529;DHT22;7351;51.194;4.098;2023-05-07T01:12:08;21.30;99.90
14529;DHT22;7351;51.194;4.098;2023-05-07T01:14:35;21.30;99.90
14529;DHT22;7351;51.194;4.098;2023-05-07T01:17:02;21.30;99.90
14529;DHT22;7351;51.194;4.098;2023-05-07T01:19:30;21.20;99.90
14529;DHT22;7351;51.194;4.098;2023-05-07T01:22:02;21.30;99.90
14529;DHT22;7351;51.194;4.098;2023-05-07T01:24:32;21.20;99.90
14529;DHT22;7351;51.194;4.098;2023-05-07T01:26:59;21.20;99.90
14529;DHT22;7351;51.194;4.098;2023-05-07T01:29:27;21.20;99.90
14529;DHT22;7351;51.194;4.098;2023-05-07T01:31:55;21.20;99.90
14529;DHT22;7351;51.194;4.098;2023-05-07T01:34:25;21.20;99.90
14529;DHT22;7351;51.194;4.098;2023-05-07T01:36:53;21.20;99.90
14529;DHT22;7351;51.194;4.098;2023-05-07T01:39:21;21.10;99.90
14529;DHT22;7351;51.194;4.098;2023-05-07T01:41:51;21.20;99.90
14529;DHT22;7351;51.194;4.098;2023-05-07T01:44:18;21.10;99.90
14529;DHT22;7351;51.194;4.098;2023-05-07T01:46:46;21.10;99.90
14529;DHT22;7351;51.194;4.098;2023-05-07T01:49:15;21.10;99.90
14529;DHT22;7351;51.194;4.098;2023-05-07T01:51:43;21.10;99.90
14529;DHT22;7351;51.194;4.098;2023-05-07T01:54:10;21.20;99.90
14529;DHT22;7351;51.194;4.098;2023-05-07T01:56:37;21.20;99.90
14529;DHT22;7351;51.194;4.098;2023-05-07T01:59:05;21.20;99.90
14529;DHT22;7351;51.194;4.098;2023-05-07T02:01:32;21.20;99.90
14529;DHT22;7351;51.194;4.098;2023-05-07T02:03:59;21.10;99.90
14529;DHT22;7351;51.194;4.098;2023-05-07T02:06:26;21.10;99.90
14529;DHT22;7351;51.194;4.098;2023-05-07T02:08:53;21.10;99.90
14529;DHT22;7351;51.194;4.098;2023-05-07T02:11:20;21.20;99.90
14529;DHT22;7351;51.194;4.098;2023-05-07T02:13:47;21.10;99.90
14529;DHT22;7351;51.194;4.098;2023-05-07T02:16:15;21.10;99.90
14529;DHT22;7351;51.194;4.098;2023-05-07T02:18:42;21.10;99.90
14529;DHT22;7351;51.194;4.098;2023-05-07T02:21:09;21.10;99.90
14529;DHT22;7351;51.194;4.098;2023-05-07T02:23:36;21.10;99.90
14529;DHT22;7351;51.194;4.098;2023-05-07T02:26:03;21.10;99.90
14529;DHT22;7351;51.194;4.098;2023-05-07T02:28:31;21.10;99.90
14529;DHT22;7351;51.194;4.098;2023-05-07T02:30:58;21.10;99.90
14529;DHT22;7351;51.194;4.098;2023-05-07T02:33:27;21.00;99.90
14529;DHT22;7351;51.194;4.098;2023-05-07T02:35:54;21.10;99.90
14529;DHT22;7351;51.194;4.098;2023-05-07T02:38:21;21.10;99.90
14529;DHT22;7351;51.194;4.098;2023-05-07T02:40:48;21.10;99.90
14529;DHT22;7351;51.194;4.098;2023-05-07T02:43:15;21.00;99.90
14529;DHT22;7351;51.194;4.098;2023-05-07T02:45:42;21.10;99.90
14529;DHT22;7351;51.194;4.098;2023-05-07T02:48:09;21.00;99.90
14529;DHT22;7351;51.194;4.098;2023-05-07T02:50:38;21.10;99.90
14529;DHT22;7351;51.194;4.098;2023-05-07T02:53:05;21.00;99.90
14529;DHT22;7351;51.194;4.098;2023-05-07T02:55:32;21.00;99.90
14529;DHT22;7351;51.194;4.098;2023-05-07T02:57:59;21.10;99.90
14529;DHT22;7351;51.194;4.098;2023-05-07T03:00:26;21.10;99.90
14529;DHT22;7351;51.194;4.098;2023-05-07T03:02:53;21.10;99.90
14529;DHT22;7351;51.194;4.098;2023-05-07T03:05:20;21.10;99.90
14529;DHT22;7351;51.194;4.098;2023-05-07T03:07:48;21.10;99.90
14529;DHT22;7351;51.194;4.098;2023-05-07T03:10:15;21.10;99.90
14529;DHT22;7351;51.194;4.098;2023-05-07T03:12:42;21.10;99.90
14529;DHT22;7351;51.194;4.098;2023-05-07T03:15:10;21.10;99.90
14529;DHT22;7351;51.194;4.098;2023-05-07T03:17:38;21.10;99.90
14529;DHT22;7351;51.194;4.098;2023-05-07T03:20:06;21.00;99.90
14529;DHT22;7351;51.194;4.098;2023-05-07T03:22:33;21.00;99.90
14529;DHT22;7351;51.194;4.098;2023-05-07T03:25:02;21.00;99.90
14529;DHT22;7351;51.194;4.098;2023-05-07T03:27:30;21.00;99.90
14529;DHT22;7351;51.194;4.098;2023-05-07T03:29:56;21.00;99.90
14529;DHT22;7351;51.194;4.098;2023-05-07T03:32:23;21.00;99.90
14529;DHT22;7351;51.194;4.098;2023-05-07T03:34:51;21.00;99.90
14529;DHT22;7351;51.194;4.098;2023-05-07T03:37:18;21.00;99.90
14529;DHT22;7351;51.194;4.098;2023-05-07T03:39:45;21.00;99.90
14529;DHT22;7351;51.194;4.098;2023-05-07T03:42:13;21.00;99.90
14529;DHT22;7351;51.194;4.098;2023-05-07T03:44:40;21.00;99.90
14529;DHT22;7351;51.194;4.098;2023-05-07T03:47:07;21.00;99.90
14529;DHT22;7351;51.194;4.098;2023-05-07T03:49:36;21.00;99.90
14529;DHT22;7351;51.194;4.098;2023-05-07T03:52:03;21.00;99.90
14529;DHT22;7351;51.194;4.098;2023-05-07T03:54:30;21.00;99.90
14529;DHT22;7351;51.194;4.098;2023-05-07T03:56:57;21.00;99.90
14529;DHT22;7351;51.194;4.098;2023-05-07T03:59:26;21.00;99.90
14529;DHT22;7351;51.194;4.098;2023-05-07T04:01:52;21.00;99.90
14529;DHT22;7351;51.194;4.098;2023-05-07T04:04:19;20.90;99.90
14529;DHT22;7351;51.194;4.098;2023-05-07T04:06:46;21.00;99.90
14529;DHT22;7351;51.194;4.098;2023-05-07T04:09:13;21.00;99.90
14529;DHT22;7351;51.194;4.098;2023-05-07T04:11:40;21.00;99.90
14529;DHT22;7351;51.194;4.098;2023-05-07T04:14:07;21.00;99.90
14529;DHT22;7351;51.194;4.098;2023-05-07T04:16:36;21.00;99.90
14529;DHT22;7351;51.194;4.098;2023-05-07T04:19:03;21.00;99.90
14529;DHT22;7351;51.194;4.098;2023-05-07T04:21:29;21.00;99.90
14529;DHT22;7351;51.194;4.098;2023-05-07T04:23:56;21.00;99.90
14529;DHT22;7351;51.194;4.098;2023-05-07T04:26:23;21.00;99.90
14529;DHT22;7351;51.194;4.098;2023-05-07T04:28:50;21.00;99.90
14529;DHT22;7351;51.194;4.098;2023-05-07T04:31:17;21.00;99.90
14529;DHT22;7351;51.194;4.098;2023-05-07T04:33:46;21.00;99.90
14529;DHT22;7351;51.194;4.098;2023-05-07T04:36:13;21.00;99.90
14529;DHT22;7351;51.194;4.098;2023-05-07T04:38:41;21.00;99.90
14529;DHT22;7351;51.194;4.098;2023-05-07T04:41:09;21.00;99.90
14529;DHT22;7351;51.194;4.098;2023-05-07T04:43:36;21.00;99.90
14529;DHT22;7351;51.194;4.098;2023-05-07T04:46:03;21.00;99.90
14529;DHT22;7351;51.194;4.098;2023-05-07T04:48:30;21.00;99.90
14529;DHT22;7351;51.194;4.098;2023-05-07T04:50:59;21.00;99.90
14529;DHT22;7351;51.194;4.098;2023-05-07T04:53:26;20.90;99.90
14529;DHT22;7351;51.194;4.098;2023-05-07T04:55:55;21.00;99.90
14529;DHT22;7351;51.194;4.098;2023-05-07T04:58:23;21.00;99.90
14529;DHT22;7351;51.194;4.098;2023-05-07T05:00:50;21.00;99.90
14529;DHT22;7351;51.194;4.098;2023-05-07T05:03:17;21.00;99.90
14529;DHT22;7351;51.194;4.098;2023-05-07T05:05:44;21.00;99.90
14529;DHT22;7351;51.194;4.098;2023-05-07T05:08:12;20.90;99.90
14529;DHT22;7351;51.194;4.098;2023-05-07T05:10:40;20.90;99.90
14529;DHT22;7351;51.194;4.098;2023-05-07T05:13:09;20.80;99.90
14529;DHT22;7351;51.194;4.098;2023-05-07T05:15:38;20.80;99.90
14529;DHT22;7351;51.194;4.098;2023-05-07T05:18:05;20.80;99.90
14529;DHT22;7351;51.194;4.098;2023-05-07T05:20:32;20.70;99.90
14529;DHT22;7351;51.194;4.098;2023-05-07T05:22:59;20.70;99.90
14529;DHT22;7351;51.194;4.098;2023-05-07T05:25:27;20.70;99.90
14529;DHT22;7351;51.194;4.098;2023-05-07T05:27:54;20.60;99.90
14529;DHT22;7351;51.194;4.098;2023-05-07T05:30:21;20.80;99.90
14529;DHT22;7351;51.194;4.098;2023-05-07T05:32:48;20.80;99.90
14529;DHT22;7351;51.194;4.098;2023-05-07T05:35:15;20.90;99.90
14529;DHT22;7351;51.194;4.098;2023-05-07T05:37:42;20.90;99.90
14529;DHT22;7351;51.194;4.098;2023-05-07T05:40:10;20.90;99.90
14529;DHT22;7351;51.194;4.098;2023-05-07T05:42:38;20.90;99.90
14529;DHT22;7351;51.194;4.098;2023-05-07T05:45:06;21.00;99.90
14529;DHT22;7351;51.194;4.098;2023-05-07T05:47:33;20.90;99.90
14529;DHT22;7351;51.194;4.098;2023-05-07T05:50:00;21.00;99.90
14529;DHT22;7351;51.194;4.098;2023-05-07T05:52:27;21.00;99.90
14529;DHT22;7351;51.194;4.098;2023-05-07T05:54:54;21.00;99.90
14529;DHT22;7351;51.194;4.098;2023-05-07T05:57:21;21.00;99.90
14529;DHT22;7351;51.194;4.098;2023-05-07T05:59:50;21.00;99.90
14529;DHT22;7351;51.194;4.098;2023-05-07T06:02:17;21.00;99.90
14529;DHT22;7351;51.194;4.098;2023-05-07T06:04:44;21.00;99.90
14529;DHT22;7351;51.194;4.098;2023-05-07T06:07:11;21.00;99.90
14529;DHT22;7351;51.194;4.098;2023-05-07T06:09:38;21.00;99.90
14529;DHT22;7351;51.194;4.098;2023-05-07T06:12:05;21.00;99.90
14529;DHT22;7351;51.194;4.098;2023-05-07T06:14:32;21.00;99.90
14529;DHT22;7351;51.194;4.098;2023-05-07T06:17:00;21.00;99.90
14529;DHT22;7351;51.194;4.098;2023-05-07T06:19:27;21.00;99.90
14529;DHT22;7351;51.194;4.098;2023-05-07T06:21:54;21.00;99.90
14529;DHT22;7351;51.194;4.098;2023-05-07T06:24:23;21.10;99.90
14529;DHT22;7351;51.194;4.098;2023-05-07T06:26:50;21.00;99.90
14529;DHT22;7351;51.194;4.098;2023-05-07T06:29:17;21.10;99.90
14529;DHT22;7351;51.194;4.098;2023-05-07T06:31:44;21.00;99.90
14529;DHT22;7351;51.194;4.098;2023-05-07T06:34:12;21.10;99.90
14529;DHT22;7351;51.194;4.098;2023-05-07T06:36:40;21.10;99.90
14529;DHT22;7351;51.194;4.098;2023-05-07T06:39:07;21.10;99.90
14529;DHT22;7351;51.194;4.098;2023-05-07T06:41:34;21.10;99.90
14529;DHT22;7351;51.194;4.098;2023-05-07T06:44:02;21.10;99.90
14529;DHT22;7351;51.194;4.098;2023-05-07T06:46:29;21.10;99.90
14529;DHT22;7351;51.194;4.098;2023-05-07T06:48:56;21.10;99.90
14529;DHT22;7351;51.194;4.098;2023-05-07T06:51:24;21.10;99.90
14529;DHT22;7351;51.194;4.098;2023-05-07T06:53:52;21.10;99.90
14529;DHT22;7351;51.194;4.098;2023-05-07T06:56:19;21.10;99.90
14529;DHT22;7351;51.194;4.098;2023-05-07T06:58:46;21.20;99.90
14529;DHT22;7351;51.194;4.098;2023-05-07T07:01:13;21.20;99.90
14529;DHT22;7351;51.194;4.098;2023-05-07T07:03:40;21.20;99.90
14529;DHT22;7351;51.194;4.098;2023-05-07T07:06:07;21.20;99.90
14529;DHT22;7351;51.194;4.098;2023-05-07T07:08:35;21.20;99.90
14529;DHT22;7351;51.194;4.098;2023-05-07T07:11:04;21.20;99.90
14529;DHT22;7351;51.194;4.098;2023-05-07T07:13:31;21.20;99.90
14529;DHT22;7351;51.194;4.098;2023-05-07T07:15:58;21.20;99.90
14529;DHT22;7351;51.194;4.098;2023-05-07T07:18:25;21.20;99.90
14529;DHT22;7351;51.194;4.098;2023-05-07T07:20:52;21.20;99.90
14529;DHT22;7351;51.194;4.098;2023-05-07T07:23:19;21.10;99.90
14529;DHT22;7351;51.194;4.098;2023-05-07T07:25:47;21.10;99.90
14529;DHT22;7351;51.194;4.098;2023-05-07T07:28:14;21.10;99.90
14529;DHT22;7351;51.194;4.098;2023-05-07T07:30:41;21.20;99.90
14529;DHT22;7351;51.194;4.098;2023-05-07T07:33:08;21.20;99.90
14529;DHT22;7351;51.194;4.098;2023-05-07T07:35:35;21.20;99.90
14529;DHT22;7351;51.194;4.098;2023-05-07T07:38:02;21.20;99.90
14529;DHT22;7351;51.194;4.098;2023-05-07T07:40:29;21.20;99.90
14529;DHT22;7351;51.194;4.098;2023-05-07T07:42:57;21.20;99.90
14529;DHT22;7351;51.194;4.098;2023-05-07T07:45:26;21.20;99.90
14529;DHT22;7351;51.194;4.098;2023-05-07T07:47:53;21.20;99.90
14529;DHT22;7351;51.194;4.098;2023-05-07T07:50:20;21.20;99.90
14529;DHT22;7351;51.194;4.098;2023-05-07T07:52:47;21.30;99.90
14529;DHT22;7351;51.194;4.098;2023-05-07T07:55:14;21.30;99.90
14529;DHT22;7351;51.194;4.098;2023-05-07T07:57:43;21.30;99.90
14529;DHT22;7351;51.194;4.098;2023-05-07T08:00:13;21.30;99.90
14529;DHT22;7351;51.194;4.098;2023-05-07T08:02:40;21.30;99.90
14529;DHT22;7351;51.194;4.098;2023-05-07T08:05:08;21.30;99.90
14529;DHT22;7351;51.194;4.098;2023-05-07T08:07:35;21.40;99.90
14529;DHT22;7351;51.194;4.098;2023-05-07T08:10:02;21.40;99.90
14529;DHT22;7351;51.194;4.098;2023-05-07T08:12:29;21.40;99.90
14529;DHT22;7351;51.194;4.098;2023-05-07T08:14:56;21.40;99.90
14529;DHT22;7351;51.194;4.098;2023-05-07T08:17:24;21.40;99.90
14529;DHT22;7351;51.194;4.098;2023-05-07T08:19:51;21.40;99.90
14529;DHT22;7351;51.194;4.098;2023-05-07T08:22:18;21.40;99.90
14529;DHT22;7351;51.194;4.098;2023-05-07T08:24:45;21.40;99.90
14529;DHT22;7351;51.194;4.098;2023-05-07T08:27:12;21.40;99.90
14529;DHT22;7351;51.194;4.098;2023-05-07T08:29:39;21.40;99.90
14529;DHT22;7351;51.194;4.098;2023-05-07T08:32:06;21.40;99.90
14529;DHT22;7351;51.194;4.098;2023-05-07T08:34:34;21.40;99.90
14529;DHT22;7351;51.194;4.098;2023-05-07T08:37:01;21.40;99.90
14529;DHT22;7351;51.194;4.098;2023-05-07T08:39:28;21.30;99.90
14529;DHT22;7351;51.194;4.098;2023-05-07T08:41:55;21.30;99.90
14529;DHT22;7351;51.194;4.098;2023-05-07T08:44:26;21.30;99.90
14529;DHT22;7351;51.194;4.098;2023-05-07T08:46:56;21.30;99.90
14529;DHT22;7351;51.194;4.098;2023-05-07T08:49:23;21.40;99.90
14529;DHT22;7351;51.194;4.098;2023-05-07T08:51:52;21.40;99.90
14529;DHT22;7351;51.194;4.098;2023-05-07T08:54:20;21.40;99.90
14529;DHT22;7351;51.194;4.098;2023-05-07T08:56:47;21.40;99.90
14529;DHT22;7351;51.194;4.098;2023-05-07T08:59:14;21.40;99.90
14529;DHT22;7351;51.194;4.098;2023-05-07T09:01:41;21.30;99.90
14529;DHT22;7351;51.194;4.098;2023-05-07T09:04:08;21.40;99.90
14529;DHT22;7351;51.194;4.098;2023-05-07T09:06:35;21.40;99.90
14529;DHT22;7351;51.194;4.098;2023-05-07T09:09:04;21.40;99.90
14529;DHT22;7351;51.194;4.098;2023-05-07T09:11:32;21.40;99.90
14529;DHT22;7351;51.194;4.098;2023-05-07T09:13:59;21.40;99.90
14529;DHT22;7351;51.194;4.098;2023-05-07T09:16:28;21.40;99.90
14529;DHT22;7351;51.194;4.098;2023-05-07T09:18:57;21.30;99.90
14529;DHT22;7351;51.194;4.098;2023-05-07T09:21:24;21.30;99.90
14529;DHT22;7351;51.194;4.098;2023-05-07T09:23:53;21.30;99.90
14529;DHT22;7351;51.194;4.098;2023-05-07T09:26:23;21.30;99.90
14529;DHT22;7351;51.194;4.098;2023-05-07T09:28:50;21.30;99.90
14529;DHT22;7351;51.194;4.098;2023-05-07T09:31:17;21.40;99.90
14529;DHT22;7351;51.194;4.098;2023-05-07T09:33:44;21.30;99.90
14529;DHT22;7351;51.194;4.098;2023-05-07T09:36:12;21.30;99.90
14529;DHT22;7351;51.194;4.098;2023-05-07T09:38:39;21.30;99.90
14529;DHT22;7351;51.194;4.098;2023-05-07T09:41:08;21.40;99.90
14529;DHT22;7351;51.194;4.098;2023-05-07T09:43:38;21.40;99.90
14529;DHT22;7351;51.194;4.098;2023-05-07T09:46:11;21.30;99.90
14529;DHT22;7351;51.194;4.098;2023-05-07T09:48:39;21.40;99.90
14529;DHT22;7351;51.194;4.098;2023-05-07T09:51:13;21.30;99.90
14529;DHT22;7351;51.194;4.098;2023-05-07T09:53:43;21.40;99.90
14529;DHT22;7351;51.194;4.098;2023-05-07T09:56:14;21.30;99.90
14529;DHT22;7351;51.194;4.098;2023-05-07T09:58:43;21.30;99.90
14529;DHT22;7351;51.194;4.098;2023-05-07T10:01:12;21.30;99.90
14529;DHT22;7351;51.194;4.098;2023-05-07T10:03:41;21.30;99.90
14529;DHT22;7351;51.194;4.098;2023-05-07T10:06:09;21.30;99.90
14529;DHT22;7351;51.194;4.098;2023-05-07T10:08:37;21.30;99.90
14529;DHT22;7351;51.194;4.098;2023-05-07T10:11:04;21.30;99.90
14529;DHT22;7351;51.194;4.098;2023-05-07T10:13:33;21.30;99.90
14529;DHT22;7351;51.194;4.098;2023-05-07T10:16:03;21.30;99.90
14529;DHT22;7351;51.194;4.098;2023-05-07T10:18:30;21.30;99.90
14529;DHT22;7351;51.194;4.098;2023-05-07T10:21:04;21.30;99.90
14529;DHT22;7351;51.194;4.098;2023-05-07T10:23:33;21.30;99.90
14529;DHT22;7351;51.194;4.098;2023-05-07T10:26:03;21.30;99.90
14529;DHT22;7351;51.194;4.098;2023-05-07T10:28:34;21.30;99.90
14529;DHT22;7351;51.194;4.098;2023-05-07T10:31:15;21.30;99.90
14529;DHT22;7351;51.194;4.098;2023-05-07T10:33:47;21.30;99.90
14529;DHT22;7351;51.194;4.098;2023-05-07T10:36:16;21.30;99.90
14529;DHT22;7351;51.194;4.098;2023-05-07T10:38:45;21.30;99.90
14529;DHT22;7351;51.194;4.098;2023-05-07T10:41:12;21.30;99.90
14529;DHT22;7351;51.194;4.098;2023-05-07T10:43:41;21.30;99.90
14529;DHT22;7351;51.194;4.098;2023-05-07T10:46:15;21.30;99.90
14529;DHT22;7351;51.194;4.098;2023-05-07T10:49:07;21.30;99.90
14529;DHT22;7351;51.194;4.098;2023-05-07T10:51:37;21.30;99.90
14529;DHT22;7351;51.194;4.098;2023-05-07T10:54:22;21.30;99.90
14529;DHT22;7351;51.194;4.098;2023-05-07T10:56:50;21.30;99.90
14529;DHT22;7351;51.194;4.098;2023-05-07T10:59:36;21.40;99.90
14529;DHT22;7351;51.194;4.098;2023-05-07T11:02:13;21.40;99.90
14529;DHT22;7351;51.194;4.098;2023-05-07T11:04:40;21.40;99.90
14529;DHT22;7351;51.194;4.098;2023-05-07T11:07:27;21.40;99.90
14529;DHT22;7351;51.194;4.098;2023-05-07T11:09:58;21.40;99.90
14529;DHT22;7351;51.194;4.098;2023-05-07T11:12:54;21.40;99.90
14529;DHT22;7351;51.194;4.098;2023-05-07T11:15:38;21.40;99.90
14529;DHT22;7351;51.194;4.098;2023-05-07T11:18:08;21.40;99.90
14529;DHT22;7351;51.194;4.098;2023-05-07T11:20:46;21.40;99.90
14529;DHT22;7351;51.194;4.098;2023-05-07T11:26:13;21.50;99.90
14529;DHT22;7351;51.194;4.098;2023-05-07T11:28:41;21.60;99.90
14529;DHT22;7351;51.194;4.098;2023-05-07T11:31:09;21.60;99.90
14529;DHT22;7351;51.194;4.098;2023-05-07T11:33:38;21.60;99.90
14529;DHT22;7351;51.194;4.098;2023-05-07T11:36:07;21.60;99.90
14529;DHT22;7351;51.194;4.098;2023-05-07T11:38:35;21.60;99.90
14529;DHT22;7351;51.194;4.098;2023-05-07T11:41:03;21.60;99.90
14529;DHT22;7351;51.194;4.098;2023-05-07T11:43:30;21.60;99.90
14529;DHT22;7351;51.194;4.098;2023-05-07T11:46:05;21.60;99.90
14529;DHT22;7351;51.194;4.098;2023-05-07T11:48:33;21.70;99.90
14529;DHT22;7351;51.194;4.098;2023-05-07T11:51:03;21.70;99.90
14529;DHT22;7351;51.194;4.098;2023-05-07T11:53:36;21.60;99.90
14529;DHT22;7351;51.194;4.098;2023-05-07T11:56:07;21.60;99.90
14529;DHT22;7351;51.194;4.098;2023-05-07T11:58:34;21.70;99.90
14529;DHT22;7351;51.194;4.098;2023-05-07T12:01:02;21.80;99.90
14529;DHT22;7351;51.194;4.098;2023-05-07T12:03:29;21.80;99.90
14529;DHT22;7351;51.194;4.098;2023-05-07T12:05:56;21.70;99.90
14529;DHT22;7351;51.194;4.098;2023-05-07T12:08:24;21.80;99.90
14529;DHT22;7351;51.194;4.098;2023-05-07T12:10:51;21.80;99.90
14529;DHT22;7351;51.194;4.098;2023-05-07T12:13:19;21.80;99.90
14529;DHT22;7351;51.194;4.098;2023-05-07T12:15:46;21.80;99.90
14529;DHT22;7351;51.194;4.098;2023-05-07T12:18:17;21.80;99.90
14529;DHT22;7351;51.194;4.098;2023-05-07T12:20:44;21.80;99.90
14529;DHT22;7351;51.194;4.098;2023-05-07T12:23:12;21.80;99.90
14529;DHT22;7351;51.194;4.098;2023-05-07T12:25:42;21.70;99.90
14529;DHT22;7351;51.194;4.098;2023-05-07T12:28:13;21.80;99.90
14529;DHT22;7351;51.194;4.098;2023-05-07T12:30:41;21.80;99.90
14529;DHT22;7351;51.194;4.098;2023-05-07T12:33:10;21.80;99.90
14529;DHT22;7351;51.194;4.098;2023-05-07T12:35:39;21.80;99.90
14529;DHT22;7351;51.194;4.098;2023-05-07T12:38:08;21.80;99.90
14529;DHT22;7351;51.194;4.098;2023-05-07T12:40:36;21.80;99.90
14529;DHT22;7351;51.194;4.098;2023-05-07T12:43:05;21.80;99.90
14529;DHT22;7351;51.194;4.098;2023-05-07T12:45:37;21.80;99.90
14529;DHT22;7351;51.194;4.098;2023-05-07T12:48:05;21.90;99.90
14529;DHT22;7351;51.194;4.098;2023-05-07T12:50:32;21.90;99.90
14529;DHT22;7351;51.194;4.098;2023-05-07T12:53:00;21.90;99.90
14529;DHT22;7351;51.194;4.098;2023-05-07T12:55:31;21.90;99.90
14529;DHT22;7351;51.194;4.098;2023-05-07T12:58:01;22.00;99.90
14529;DHT22;7351;51.194;4.098;2023-05-07T13:00:37;22.00;99.90
14529;DHT22;7351;51.194;4.098;2023-05-07T13:03:04;22.00;99.90
14529;DHT22;7351;51.194;4.098;2023-05-07T13:05:32;22.00;99.90
14529;DHT22;7351;51.194;4.098;2023-05-07T13:07:59;22.00;99.90
14529;DHT22;7351;51.194;4.098;2023-05-07T13:10:27;22.00;99.90
14529;DHT22;7351;51.194;4.098;2023-05-07T13:12:54;22.10;99.90
14529;DHT22;7351;51.194;4.098;2023-05-07T13:15:21;22.10;99.90
14529;DHT22;7351;51.194;4.098;2023-05-07T13:17:50;22.10;99.90
14529;DHT22;7351;51.194;4.098;2023-05-07T13:20:17;22.00;99.90
14529;DHT22;7351;51.194;4.098;2023-05-07T13:22:43;22.10;99.90
14529;DHT22;7351;51.194;4.098;2023-05-07T13:25:16;22.10;99.90
14529;DHT22;7351;51.194;4.098;2023-05-07T13:27:43;22.10;99.90
14529;DHT22;7351;51.194;4.098;2023-05-07T13:30:10;22.10;99.90
14529;DHT22;7351;51.194;4.098;2023-05-07T13:32:37;22.10;99.90
14529;DHT22;7351;51.194;4.098;2023-05-07T13:35:07;22.20;99.90
14529;DHT22;7351;51.194;4.098;2023-05-07T13:37:34;22.10;99.90
14529;DHT22;7351;51.194;4.098;2023-05-07T13:40:02;22.20;99.90
14529;DHT22;7351;51.194;4.098;2023-05-07T13:42:29;22.20;99.90
14529;DHT22;7351;51.194;4.098;2023-05-07T13:44:56;22.20;99.90
14529;DHT22;7351;51.194;4.098;2023-05-07T13:47:23;22.20;99.90
14529;DHT22;7351;51.194;4.098;2023-05-07T13:49:50;22.20;99.90
14529;DHT22;7351;51.194;4.098;2023-05-07T13:52:19;22.20;99.90
14529;DHT22;7351;51.194;4.098;2023-05-07T13:54:46;22.10;99.90
14529;DHT22;7351;51.194;4.098;2023-05-07T13:57:13;22.10;99.90
14529;DHT22;7351;51.194;4.098;2023-05-07T13:59:40;22.20;99.90
14529;DHT22;7351;51.194;4.098;2023-05-07T14:02:07;22.10;99.90
14529;DHT22;7351;51.194;4.098;2023-05-07T14:04:34;22.10;99.90
14529;DHT22;7351;51.194;4.098;2023-05-07T14:07:01;22.10;99.90
14529;DHT22;7351;51.194;4.098;2023-05-07T14:09:30;22.10;99.90
14529;DHT22;7351;51.194;4.098;2023-05-07T14:11:57;22.10;99.90
14529;DHT22;7351;51.194;4.098;2023-05-07T14:14:24;22.10;99.90
14529;DHT22;7351;51.194;4.098;2023-05-07T14:16:50;22.10;99.90
14529;DHT22;7351;51.194;4.098;2023-05-07T14:19:17;22.10;99.90
14529;DHT22;7351;51.194;4.098;2023-05-07T14:21:44;22.10;99.90
14529;DHT22;7351;51.194;4.098;2023-05-07T14:24:11;22.10;99.90
14529;DHT22;7351;51.194;4.098;2023-05-07T14:26:40;22.10;99.90
14529;DHT22;7351;51.194;4.098;2023-05-07T14:29:06;22.10;99.90
14529;DHT22;7351;51.194;4.098;2023-05-07T14:31:33;22.10;99.90
14529;DHT22;7351;51.194;4.098;2023-05-07T14:34:00;22.10;99.90
14529;DHT22;7351;51.194;4.098;2023-05-07T14:36:27;22.10;99.90
14529;DHT22;7351;51.194;4.098;2023-05-07T14:38:55;22.10;99.90
14529;DHT22;7351;51.194;4.098;2023-05-07T14:41:24;22.10;99.90
14529;DHT22;7351;51.194;4.098;2023-05-07T14:43:53;22.10;99.90
14529;DHT22;7351;51.194;4.098;2023-05-07T14:46:20;22.10;99.90
14529;DHT22;7351;51.194;4.098;2023-05-07T14:48:47;22.10;99.90
14529;DHT22;7351;51.194;4.098;2023-05-07T14:51:14;22.10;99.90
14529;DHT22;7351;51.194;4.098;2023-05-07T14:53:41;22.10;99.90
14529;DHT22;7351;51.194;4.098;2023-05-07T14:56:08;22.10;99.90
14529;DHT22;7351;51.194;4.098;2023-05-07T14:58:35;22.10;99.90
14529;DHT22;7351;51.194;4.098;2023-05-07T15:01:04;22.10;99.90
14529;DHT22;7351;51.194;4.098;2023-05-07T15:03:31;22.10;99.90
14529;DHT22;7351;51.194;4.098;2023-05-07T15:05:58;22.10;99.90
14529;DHT22;7351;51.194;4.098;2023-05-07T15:08:25;22.00;99.90
14529;DHT22;7351;51.194;4.098;2023-05-07T15:10:52;22.00;99.90
14529;DHT22;7351;51.194;4.098;2023-05-07T15:13:19;22.00;99.90
14529;DHT22;7351;51.194;4.098;2023-05-07T15:15:45;22.00;99.90
14529;DHT22;7351;51.194;4.098;2023-05-07T15:18:14;22.10;99.90
14529;DHT22;7351;51.194;4.098;2023-05-07T15:20:41;22.10;99.90
14529;DHT22;7351;51.194;4.098;2023-05-07T15:23:09;22.10;99.90
14529;DHT22;7351;51.194;4.098;2023-05-07T15:25:37;22.10;99.90
14529;DHT22;7351;51.194;4.098;2023-05-07T15:28:04;22.10;99.90
14529;DHT22;7351;51.194;4.098;2023-05-07T15:30:31;22.10;99.90
14529;DHT22;7351;51.194;4.098;2023-05-07T15:32:58;22.10;99.90
14529;DHT22;7351;51.194;4.098;2023-05-07T15:35:26;22.10;99.90
14529;DHT22;7351;51.194;4.098;2023-05-07T15:37:53;22.10;99.90
14529;DHT22;7351;51.194;4.098;2023-05-07T15:40:21;22.10;99.90
14529;DHT22;7351;51.194;4.098;2023-05-07T15:42:47;22.20;99.90
14529;DHT22;7351;51.194;4.098;2023-05-07T15:45:16;22.20;99.90
14529;DHT22;7351;51.194;4.098;2023-05-07T15:47:43;22.20;99.90
14529;DHT22;7351;51.194;4.098;2023-05-07T15:50:10;22.20;99.90
14529;DHT22;7351;51.194;4.098;2023-05-07T15:52:38;22.20;99.90